Ardmore, OK (73402)

12:51 AM CST on February 27, 2015 (GMT -0600)
Ardmore Weather Live | Change Station
CLOSE
Current Station
Personal Weather Station
Location: Ardmore, Ok
Elevation: 810 ft
Nearby Weather Stations
Active Advisory: Winter Weather Advisory

Elev 810 ft 34.15 °N, 97.11 °W | Updated 2 seconds ago

Overcast
Overcast
25.3 °F
Feels Like 19 °F
N
5.7
Wind Variable Wind from NE
Gusts 12.7 mph

Today
High -- | Low -- °F
--% Chance of Precip.
Yesterday
High -- | Low -- °F
Precip. -- in
6:59 AM 6:22 PM
Waxing Gibbous, 66% visible
Pressure 30.46 in
Visibility 10.0 miles
Clouds Overcast 10000 ft
Windchill 19 °F
Dew Point 9 °F
Humidity 49%
Rainfall 0.00 in
Snow Depth Not available.
UV 0.0 out of 12
Pollen 6.50 out of 12
Air Quality Not available.
Flu Activity Not available.
METAR K1F0 270635Z AUTO 06008KT 10SM OVC100 M02/M13 A3046 RMK AO2

More Conditions Fewer Conditions

Pressure 30.46 in
Visibility 10.0 miles
Clouds Overcast 10000 ft
Windchill 19 °F
Dew Point 9 °F
Humidity 49%
Rainfall 0.00 in
Snow Depth Not available.
UV 0.0 out of 12
Pollen 6.50 out of 12
Air Quality Not available.
Flu Activity Not available.
METAR K1F0 270635Z AUTO 06008KT 10SM OVC100 M02/M13 A3046 RMK AO2

More Conditions Fewer Conditions

10-Day Weather Forecast

Almanac

Astronomy

Feb. 27, 2015 Rise Set
Actual Time
Civil Twilight
Nautical Twilight
Astronomical Twilight
Moon
Length of Visible Light
Length of Day
Tomorrow will be .
, % of the Moon is Illuminated

Today's Extremes

State Highs State Lows

Community

WunderPhotos

Upload Photos

1,800,646 photos uploaded!

WunderBlogs® & News

Nearby

Air Quality

  Air Quality AQ Index Pollutant
Not available.

Snow Depth

Station Depth Elevation

Earthquake Activity

City Distance Mag. Time & Date
Minimum magnitude displayed is 2.5.

Coastal Water Temperatures

Place Temperature

Nearby Weather Stations

Winter Weather Advisory
Statement as of 9:21 PM CST on February 26, 2015

... Winter Weather Advisory remains in effect from 6 am Friday to
midnight CST Friday night...

A Winter Weather Advisory remains in effect from 6 am Friday to
midnight CST Friday night.

* Timing: light to moderate snow will develop around 6 am and
move into portions of western Oklahoma and western North Texas
through the morning and into the evening... tapering off
through midnight.

* Main impact: 2 to 3 inches of snow... ..With locally higher
amounts.

* Other impacts: slick and hazardous roads can be expected...
impacting the Friday morning commute.

Precautionary/preparedness actions...

Be careful if you have to travel. Even small amounts of ice and
snow can make roads and sidewalks slick and dangerous.